Time;durP1;ratioP1;P1;durP2;ratioP2;P2;SDS_P1;SDS_P2;PMS_P1;PMS_P2;Temp;Humidity;BMP_temperature;BMP_pressure;BME280_temperature;BME280_humidity;BME280_pressure;Samples;Min_cycle;Max_cycle;Signal;HPM_P1;HPM_P2
2022/04/27 00:03:19;;;;;;;12.65;7.63;;;;;;;3.76;82.34;102134.72;10497405;28;20507;-74
2022/04/27 00:08:20;;;;;;;14.02;10.32;;;;;;;3.68;82.34;102139.13;10455988;28;20041;-74
2022/04/27 00:13:20;;;;;;;10.73;6.93;;;;;;;3.15;82.75;102136.66;10440452;28;20072;-74
2022/04/27 00:18:21;;;;;;;12.30;7.57;;;;;;;2.71;84.02;102130.59;10459870;28;20102;-74
2022/04/27 00:23:25;;;;;;;12.15;7.75;;;;;;;2.34;84.97;102131.31;10438561;28;20037;-74
2022/04/27 00:28:25;;;;;;;15.15;8.55;;;;;;;2.12;85.79;102136.00;10440448;28;20036;-73
2022/04/27 00:33:26;;;;;;;16.55;9.95;;;;;;;1.95;86.58;102133.34;10439481;28;20070;-74
2022/04/27 00:38:26;;;;;;;20.13;9.70;;;;;;;1.85;87.56;102139.22;10456738;28;20468;-75
2022/04/27 00:43:36;;;;;;;14.32;10.43;;;;;;;1.76;88.40;102136.63;10438288;28;20043;-74
2022/04/27 00:48:39;;;;;;;14.77;10.90;;;;;;;1.82;89.16;102145.00;10440611;28;20025;-74
2022/04/27 00:53:40;;;;;;;18.33;12.65;;;;;;;1.68;89.45;102148.72;10437525;28;20559;-74
2022/04/27 00:58:41;;;;;;;19.60;11.07;;;;;;;1.52;89.35;102150.44;10455415;28;20489;-74
2022/04/27 01:03:42;;;;;;;21.02;11.70;;;;;;;1.40;90.01;102143.25;10438618;28;20080;-74
2022/04/27 01:08:42;;;;;;;16.40;12.27;;;;;;;1.30;89.75;102153.34;10437142;28;20044;-74
2022/04/27 01:13:43;;;;;;;18.00;10.57;;;;;;;1.22;90.01;102155.13;10421224;28;20461;-75
2022/04/27 01:18:44;;;;;;;19.27;12.35;;;;;;;1.19;90.18;102161.63;10438826;28;20029;-73
2022/04/27 01:23:44;;;;;;;16.17;13.27;;;;;;;1.21;90.95;102165.28;10438480;28;20121;-74
2022/04/27 01:28:45;;;;;;;17.20;12.30;;;;;;;1.20;90.50;102166.03;10454986;28;20056;-74
2022/04/27 01:33:47;;;;;;;17.73;11.18;;;;;;;1.28;91.87;102170.34;10455142;28;20462;-74
2022/04/27 01:38:47;;;;;;;22.75;12.68;;;;;;;1.22;91.68;102172.25;10454543;28;20032;-74
2022/04/27 01:43:48;;;;;;;20.23;14.43;;;;;;;1.13;91.34;102178.28;10434379;28;20505;-74
2022/04/27 01:48:50;;;;;;;23.00;13.30;;;;;;;1.10;91.56;102175.38;10453164;28;20123;-74
2022/04/27 01:59:09;;;;;;;22.80;16.83;;;;;;;0.99;91.84;102181.03;10455208;28;20495;-75
2022/04/27 02:04:10;;;;;;;25.33;18.00;;;;;;;1.06;92.81;102178.38;10418724;28;20063;-74
2022/04/27 02:09:10;;;;;;;21.33;15.63;;;;;;;1.06;92.83;102186.09;10455076;28;20033;-74
2022/04/27 02:14:11;;;;;;;21.98;14.07;;;;;;;0.96;92.50;102186.81;10453550;28;20115;-74
2022/04/27 02:19:13;;;;;;;23.38;15.07;;;;;;;0.86;92.22;102191.72;10454157;28;20037;-73
2022/04/27 02:24:13;;;;;;;22.10;14.00;;;;;;;0.85;93.08;102195.03;10451588;28;20025;-74
2022/04/27 02:29:16;;;;;;;23.40;15.80;;;;;;;0.76;93.30;102207.81;10453489;28;20048;-74
2022/04/27 02:34:16;;;;;;;22.27;14.25;;;;;;;0.72;92.76;102209.19;10451769;28;20064;-74
2022/04/27 02:39:16;;;;;;;20.40;15.32;;;;;;;0.67;93.21;102210.34;10435462;28;20116;-74
2022/04/27 02:44:17;;;;;;;21.88;13.25;;;;;;;0.62;93.06;102213.13;10451941;28;20068;-74
2022/04/27 02:54:37;;;;;;;21.15;13.63;;;;;;;0.60;92.91;102218.16;10436631;28;20033;-74
2022/04/27 02:59:37;;;;;;;21.95;13.38;;;;;;;0.64;92.58;102209.06;10417867;28;20061;-74
2022/04/27 03:04:38;;;;;;;21.45;16.08;;;;;;;0.87;93.34;102221.91;10451567;28;20134;-74
2022/04/27 03:09:38;;;;;;;25.80;17.52;;;;;;;1.07;93.73;102218.88;10436617;28;20045;-73
2022/04/27 03:14:39;;;;;;;22.73;16.30;;;;;;;1.26;94.49;102226.00;10415665;28;20095;-75
2022/04/27 03:19:39;;;;;;;28.85;17.92;;;;;;;1.39;94.60;102217.94;10452525;28;20796;-74
2022/04/27 03:24:39;;;;;;;29.30;19.80;;;;;;;1.60;94.96;102216.69;10433397;28;20064;-75
2022/04/27 03:29:40;;;;;;;27.02;18.40;;;;;;;1.71;95.15;102221.31;10451680;28;20114;-74
2022/04/27 03:34:40;;;;;;;35.15;19.52;;;;;;;1.75;95.30;102225.16;10456697;28;20021;-74
2022/04/27 03:39:41;;;;;;;32.25;20.73;;;;;;;1.80;95.08;102218.81;10460312;28;20453;-74
2022/04/27 03:44:41;;;;;;;31.75;20.13;;;;;;;1.73;94.73;102222.38;10439454;28;20075;-74
2022/04/27 03:49:42;;;;;;;34.20;20.55;;;;;;;1.55;94.35;102223.03;10441131;28;20496;-73
2022/04/27 03:54:42;;;;;;;26.77;17.20;;;;;;;1.29;93.39;102234.06;10458870;28;20056;-74
2022/04/27 03:59:43;;;;;;;33.80;19.98;;;;;;;1.16;93.80;102243.06;10459685;28;20056;-73
2022/04/27 04:04:43;;;;;;;31.20;16.95;;;;;;;1.07;94.51;102259.25;10439993;28;20087;-74
2022/04/27 04:09:44;;;;;;;27.98;18.42;;;;;;;0.98;93.87;102252.34;10460269;28;20484;-73
2022/04/27 04:14:44;;;;;;;29.13;17.40;;;;;;;1.06;94.64;102260.88;10456008;28;20063;-74
2022/04/27 04:19:45;;;;;;;32.08;19.90;;;;;;;0.94;94.48;102269.88;10440854;28;20029;-74
2022/04/27 04:30:05;;;;;;;30.20;21.85;;;;;;;0.93;94.12;102274.13;10443617;28;20037;-74
2022/04/27 04:35:06;;;;;;;25.88;18.10;;;;;;;0.90;94.13;102275.44;10458779;28;20487;-73
2022/04/27 04:40:07;;;;;;;31.20;20.75;;;;;;;0.81;94.73;102277.94;10457293;28;20123;-74
2022/04/27 04:45:10;;;;;;;27.30;19.77;;;;;;;0.84;94.98;102286.91;10437298;28;20037;-74
2022/04/27 04:50:12;;;;;;;29.65;19.70;;;;;;;0.89;95.20;102282.28;10455820;28;20032;-74
2022/04/27 04:55:12;;;;;;;29.50;19.90;;;;;;;1.00;95.48;102289.50;10406881;28;20495;-74
2022/04/27 05:00:13;;;;;;;32.83;23.20;;;;;;;1.16;96.03;102302.41;10457416;28;20287;-74
2022/04/27 05:05:16;;;;;;;31.88;20.02;;;;;;;1.37;96.23;102296.81;10420042;28;20049;-74
2022/04/27 05:10:17;;;;;;;35.55;20.92;;;;;;;1.57;95.84;102306.69;10438750;28;20041;-74
2022/04/27 05:15:18;;;;;;;37.90;23.13;;;;;;;1.76;96.43;102307.91;10437759;28;20036;-73
2022/04/27 05:20:18;;;;;;;37.47;23.52;;;;;;;1.94;96.53;102301.97;10452633;28;20068;-74
2022/04/27 05:25:19;;;;;;;33.80;20.98;;;;;;;2.16;97.23;102315.44;10433363;28;20045;-73
2022/04/27 05:35:39;;;;;;;36.63;24.33;;;;;;;2.85;97.36;102320.78;10424006;28;20049;-74
2022/04/27 05:40:42;;;;;;;30.58;21.20;;;;;;;3.28;97.64;102330.28;10423480;28;20032;-73
2022/04/27 05:45:45;;;;;;;29.52;17.27;;;;;;;4.69;97.59;102335.25;10433127;28;20036;-73
2022/04/27 05:50:46;;;;;;;17.17;12.45;;;;;;;6.55;88.89;102328.69;10436082;28;20524;-74
2022/04/27 05:55:46;;;;;;;15.98;10.45;;;;;;;8.47;75.05;102319.28;10431304;28;20043;-74
2022/04/27 06:00:49;;;;;;;14.70;10.20;;;;;;;9.91;67.12;102319.78;10430143;28;20462;-74
2022/04/27 06:05:49;;;;;;;18.92;10.45;;;;;;;11.09;61.85;102322.88;10441191;28;20048;-74
2022/04/27 06:10:52;;;;;;;13.02;10.35;;;;;;;12.00;57.59;102327.19;10409387;28;20041;-73
2022/04/27 06:15:53;;;;;;;18.13;10.43;;;;;;;12.51;56.61;102335.66;10426185;28;20030;-74
2022/04/27 06:20:54;;;;;;;14.82;8.93;;;;;;;13.33;54.59;102337.13;10434247;28;20495;-74
2022/04/27 06:25:55;;;;;;;11.75;8.73;;;;;;;14.07;49.87;102336.19;10430968;28;20113;-73
2022/04/27 06:30:56;;;;;;;11.05;8.82;;;;;;;14.46;49.16;102337.44;10419285;28;20049;-74
2022/04/27 06:35:56;;;;;;;14.90;8.90;;;;;;;15.18;46.83;102342.16;10423278;28;20057;-73
2022/04/27 06:40:57;;;;;;;11.27;8.70;;;;;;;15.43;46.11;102349.59;10436340;28;20076;-74
2022/04/27 06:45:59;;;;;;;14.52;9.27;;;;;;;15.89;46.50;102350.16;10420303;28;20131;-74
2022/04/27 06:51:00;;;;;;;13.82;8.73;;;;;;;16.45;45.28;102353.75;10418297;28;20044;-73
2022/04/27 06:56:00;;;;;;;16.77;8.50;;;;;;;16.15;46.44;102357.63;10435156;28;20037;-74
2022/04/27 07:01:01;;;;;;;13.05;10.07;;;;;;;16.92;44.20;102361.16;10452164;28;20135;-74
2022/04/27 07:06:02;;;;;;;14.20;9.55;;;;;;;17.14;43.43;102360.41;10420226;28;20517;-75
2022/04/27 07:11:03;;;;;;;14.65;9.13;;;;;;;17.41;41.55;102366.00;10416730;28;20033;-74
2022/04/27 07:16:06;;;;;;;17.90;9.53;;;;;;;18.17;41.01;102358.56;10415733;28;20043;-75
2022/04/27 07:21:08;;;;;;;11.10;8.02;;;;;;;18.52;40.30;102370.50;10427868;28;20095;-75
2022/04/27 07:26:09;;;;;;;11.88;8.40;;;;;;;18.96;39.92;102365.09;10434816;28;20056;-72
2022/04/27 07:31:09;;;;;;;15.07;9.93;;;;;;;18.95;39.16;102369.47;10446132;28;20071;-73
2022/04/27 07:36:10;;;;;;;11.70;8.57;;;;;;;19.37;37.15;102371.03;10425409;28;20032;-73
2022/04/27 07:41:10;;;;;;;11.23;7.10;;;;;;;19.76;38.83;102374.97;10415712;28;20465;-73
2022/04/27 07:46:11;;;;;;;13.40;7.53;;;;;;;20.05;36.37;102381.31;10406996;28;20021;-73
2022/04/27 07:51:12;;;;;;;8.70;5.90;;;;;;;20.64;34.58;102388.44;10439551;28;20110;-74
2022/04/27 07:56:13;;;;;;;8.70;6.97;;;;;;;19.80;34.22;102390.16;10420925;28;20040;-75
2022/04/27 08:01:13;;;;;;;9.87;5.80;;;;;;;19.44;35.96;102385.41;10412340;28;20051;-74
2022/04/27 08:06:14;;;;;;;8.80;5.13;;;;;;;20.17;33.40;102394.06;10428294;28;20050;-74
2022/04/27 08:11:15;;;;;;;5.80;4.33;;;;;;;20.53;32.23;102398.75;10440881;28;20579;-73
2022/04/27 08:16:16;;;;;;;7.65;4.20;;;;;;;20.88;31.40;102405.13;10415791;28;20048;-74
2022/04/27 08:21:18;;;;;;;9.57;3.63;;;;;;;20.90;30.83;102404.31;10443063;28;20065;-74
2022/04/27 08:26:18;;;;;;;8.38;5.70;;;;;;;20.75;32.14;102409.16;10434060;28;20044;-73
2022/04/27 08:31:20;;;;;;;8.50;4.43;;;;;;;20.61;33.26;102409.63;10437628;28;20495;-73
2022/04/27 08:36:23;;;;;;;;;;;;;;;21.08;30.25;102413.69;10416663;28;20135;-73
2022/04/27 08:41:24;;;;;;;10.05;4.28;;;;;;;21.28;31.49;102414.22;10425608;28;20059;-74
2022/04/27 08:46:26;;;;;;;5.63;3.97;;;;;;;21.92;30.33;102414.16;10399695;28;20156;-74
2022/04/27 08:51:29;;;;;;;6.68;3.85;;;;;;;22.38;29.00;102406.41;10399100;28;20092;-73
2022/04/27 08:56:32;;;;;;;5.72;4.13;;;;;;;21.48;30.38;102424.53;10416542;28;20461;-77
2022/04/27 09:01:33;;;;;;;5.57;4.13;;;;;;;21.87;29.70;102418.47;10399455;28;20025;-74
2022/04/27 09:06:39;;;;;;;9.23;4.43;;;;;;;22.57;28.93;102413.06;10422013;28;20058;-75
2022/04/27 09:11:39;;;;;;;8.35;5.05;;;;;;;22.18;31.68;102415.69;10457361;28;20041;-75
2022/04/27 09:22:01;;;;;;;8.35;4.85;;;;;;;21.52;30.04;102413.09;10457815;28;20124;-73
2022/04/27 09:27:11;;;;;;;10.35;5.03;;;;;;;22.40;29.98;102409.09;10438291;28;20040;-74
2022/04/27 09:32:16;;;;;;;8.68;4.50;;;;;;;22.24;29.06;102413.19;10452481;28;20045;-73
2022/04/27 09:37:33;;;;;;;7.05;4.38;;;;;;;22.58;28.47;102417.53;10436956;28;20044;-73
2022/04/27 09:42:41;;;;;;;9.63;5.85;;;;;;;22.00;31.15;102414.38;10439594;28;20067;-74
2022/04/27 09:48:00;;;;;;;5.03;4.10;;;;;;;23.44;28.84;102422.00;10455790;28;20488;-73
2022/04/27 09:53:01;;;;;;;8.43;5.60;;;;;;;23.83;28.59;102420.91;10422413;28;20480;-75
2022/04/27 09:58:01;;;;;;;8.87;6.30;;;;;;;24.49;26.07;102417.47;10405572;28;20073;-75
2022/04/27 10:03:02;;;;;;;9.67;5.93;;;;;;;23.72;27.28;102418.03;10437027;28;20075;-74
2022/04/27 10:08:02;;;;;;;12.17;6.20;;;;;;;22.49;29.82;102427.13;10467419;28;20094;-74
2022/04/27 10:13:03;;;;;;;8.53;6.23;;;;;;;23.36;27.16;102424.50;10496065;28;20051;-74
2022/04/27 10:18:04;;;;;;;8.50;6.83;;;;;;;23.69;27.28;102423.31;10474326;28;20040;-74
2022/04/27 10:23:28;;;;;;;8.00;5.70;;;;;;;23.02;28.22;102419.38;10496025;28;20036;-75
2022/04/27 10:28:28;;;;;;;9.90;6.05;;;;;;;22.70;27.49;102416.00;10494305;28;20469;-74
2022/04/27 10:33:40;;;;;;;8.30;5.53;;;;;;;22.96;31.07;102407.66;10479088;28;20115;-74
2022/04/27 10:38:40;;;;;;;7.63;5.73;;;;;;;23.32;28.70;102406.63;10492574;28;20060;-75
2022/04/27 10:43:44;;;;;;;7.53;5.53;;;;;;;23.44;28.01;102404.16;10494374;28;20327;-74
2022/04/27 10:48:46;;;;;;;8.68;5.70;;;;;;;23.20;28.07;102396.56;10491393;28;20044;-75
2022/04/27 10:53:49;;;;;;;8.20;7.07;;;;;;;23.16;30.25;102406.28;10487574;28;20424;-75
2022/04/27 10:58:49;;;;;;;8.75;5.25;;;;;;;23.29;27.78;102404.81;10493973;28;20068;-75
2022/04/27 11:03:57;;;;;;;11.02;7.53;;;;;;;23.04;26.85;102398.03;10491083;28;20144;-75
2022/04/27 11:09:16;;;;;;;9.73;5.55;;;;;;;23.60;26.93;102400.03;10453579;28;20068;-74
2022/04/27 11:14:16;;;;;;;10.07;6.32;;;;;;;23.99;25.34;102399.78;10434778;28;20064;-75
2022/04/27 11:19:17;;;;;;;8.65;6.70;;;;;;;23.72;28.21;102398.44;10419525;28;20122;-75
2022/04/27 11:24:20;;;;;;;8.27;6.30;;;;;;;24.01;26.38;102396.25;10434361;28;20036;-75
2022/04/27 11:29:20;;;;;;;13.63;7.03;;;;;;;24.07;28.46;102399.91;10434935;28;20040;-76
2022/04/27 11:34:24;;;;;;;9.77;6.53;;;;;;;24.05;25.58;102391.88;10433814;28;20052;-75
2022/04/27 11:39:25;;;;;;;10.55;7.55;;;;;;;24.16;27.66;102389.34;10452836;28;20036;-75
2022/04/27 11:44:27;;;;;;;10.80;7.47;;;;;;;24.45;24.75;102389.78;10417202;28;20044;-75
2022/04/27 11:49:27;;;;;;;15.35;9.02;;;;;;;24.62;24.97;102395.38;10418988;28;20559;-75
2022/04/27 11:54:30;;;;;;;8.67;7.40;;;;;;;24.51;25.08;102396.13;10438806;28;20072;-75
2022/04/27 11:59:41;;;;;;;10.73;7.75;;;;;;;23.51;28.55;102389.16;10424374;28;20396;-75
2022/04/27 12:04:44;;;;;;;9.30;7.63;;;;;;;23.33;26.85;102388.84;10460490;28;20041;-75
2022/04/27 12:10:01;;;;;;;10.05;8.45;;;;;;;23.44;28.06;102393.50;10441604;28;20039;-76
2022/04/27 12:15:11;;;;;;;11.50;7.47;;;;;;;23.79;27.81;102386.06;10438598;28;20039;-77
2022/04/27 12:20:29;;;;;;;12.02;8.10;;;;;;;24.52;30.43;102384.53;10439143;28;20033;-75
2022/04/27 12:25:46;;;;;;;14.90;9.85;;;;;;;24.38;27.75;102384.31;10442653;28;20036;-75
2022/04/27 12:30:53;;;;;;;13.30;9.90;;;;;;;24.10;28.71;102376.81;10439179;28;20056;-76
2022/04/27 12:41:30;;;;;;;9.85;7.65;;;;;;;20.32;33.42;102383.03;10428127;28;20033;-75
2022/04/27 12:46:30;;;;;;;10.32;8.95;;;;;;;18.43;35.53;102385.19;10455568;28;20034;-75
2022/04/27 12:51:33;;;;;;;11.57;8.15;;;;;;;18.07;35.85;102374.94;10411867;28;20076;-75
2022/04/27 12:56:35;;;;;;;11.63;8.68;;;;;;;21.21;34.45;102372.31;10385904;28;20473;-75
2022/04/27 13:01:36;;;;;;;12.20;8.77;;;;;;;22.02;31.36;102372.66;10441108;28;20082;-75
2022/04/27 13:06:37;;;;;;;12.38;9.50;;;;;;;19.85;34.79;102371.75;10445177;28;20270;-75
2022/04/27 13:11:55;;;;;;;13.27;8.93;;;;;;;19.84;35.01;102364.63;10447809;28;20424;-75
2022/04/27 13:16:56;;;;;;;13.07;9.07;;;;;;;22.04;30.85;102360.28;10426260;28;20021;-75
2022/04/27 13:22:00;;;;;;;11.88;10.02;;;;;;;22.55;31.04;102345.44;10412533;28;20040;-74
2022/04/27 13:27:01;;;;;;;12.70;10.13;;;;;;;23.10;31.02;102342.09;10435449;28;20037;-75
2022/04/27 13:32:01;;;;;;;14.73;11.35;;;;;;;21.15;33.22;102345.53;10452506;28;20057;-75
2022/04/27 13:37:02;;;;;;;17.88;12.35;;;;;;;20.00;33.42;102350.09;10448678;28;20029;-75
2022/04/27 13:42:05;;;;;;;13.60;11.88;;;;;;;18.30;37.51;102354.69;10414259;28;20603;-75
2022/04/27 13:47:05;;;;;;;13.07;11.15;;;;;;;17.57;38.92;102354.31;10409133;28;20044;-74
2022/04/27 13:52:06;;;;;;;16.75;10.18;;;;;;;19.31;33.41;102345.16;10427538;28;20033;-75
2022/04/27 13:57:07;;;;;;;17.92;11.38;;;;;;;21.70;33.65;102335.47;10421895;28;20121;-75
2022/04/27 14:02:08;;;;;;;15.27;10.75;;;;;;;22.40;29.13;102335.31;10450428;28;20084;-75
2022/04/27 14:07:08;;;;;;;12.63;10.55;;;;;;;22.80;29.76;102326.38;10415639;28;20041;-75
2022/04/27 14:22:49;;;;;;;14.85;12.68;;;;;;;23.61;28.54;102323.41;10451921;28;20037;-75
2022/04/27 14:27:50;;;;;;;;;;;;;;;22.96;28.86;102315.13;10440435;28;20025;-75
2022/04/27 14:32:51;;;;;;;22.15;11.73;;;;;;;23.22;28.58;102309.38;10448609;28;19920;-76
2022/04/27 14:37:51;;;;;;;14.30;10.13;;;;;;;21.97;29.59;102308.56;10432453;28;20040;-75
2022/04/27 14:42:52;;;;;;;29.27;10.57;;;;;;;21.61;32.86;102306.78;10415973;28;20029;-74
2022/04/27 14:47:53;;;;;;;15.93;12.27;;;;;;;21.19;29.97;102310.16;10413439;28;20024;-74
2022/04/27 14:52:53;;;;;;;14.88;11.70;;;;;;;21.24;29.83;102300.53;10451732;28;20071;-75
2022/04/27 14:57:53;;;;;;;15.20;11.25;;;;;;;21.12;30.54;102304.66;10420073;28;20025;-74
2022/04/27 15:02:54;;;;;;;18.35;12.15;;;;;;;21.01;34.71;102305.25;10454308;28;20484;-75
2022/04/27 15:07:55;;;;;;;18.27;12.95;;;;;;;20.28;32.41;102312.03;10465260;28;20056;-74
2022/04/27 15:12:56;;;;;;;16.17;12.35;;;;;;;20.32;34.07;102311.25;10495490;28;20036;-75
2022/04/27 15:17:56;;;;;;;17.33;12.07;;;;;;;20.16;34.34;102314.31;10493459;28;20107;-74
2022/04/27 15:22:57;;;;;;;15.75;13.13;;;;;;;19.68;35.44;102308.34;10494310;28;20061;-74
2022/04/27 15:27:57;;;;;;;16.65;11.60;;;;;;;19.50;35.39;102305.97;10496431;28;20145;-74
2022/04/27 15:32:58;;;;;;;14.00;12.20;;;;;;;18.89;37.25;102316.19;10503146;28;20064;-74
2022/04/27 15:37:59;;;;;;;17.05;11.38;;;;;;;17.76;35.89;102308.34;10502140;28;20365;-74
2022/04/27 15:43:04;;;;;;;15.80;12.00;;;;;;;16.64;38.22;102314.97;10503522;28;20202;-74
2022/04/27 15:48:05;;;;;;;14.73;12.10;;;;;;;16.02;40.75;102302.41;10501590;28;20101;-74
2022/04/27 15:53:06;;;;;;;14.27;12.63;;;;;;;15.80;40.54;102303.97;10495789;28;20560;-75
2022/04/27 15:58:06;;;;;;;14.10;10.05;;;;;;;15.76;41.10;102312.56;10473302;28;20295;-75
2022/04/27 16:03:07;;;;;;;13.40;10.25;;;;;;;15.55;41.39;102309.78;10494784;28;20087;-75
2022/04/27 16:08:07;;;;;;;19.05;11.40;;;;;;;15.51;43.27;102315.72;10482895;28;20139;-75
2022/04/27 16:13:08;;;;;;;18.17;10.13;;;;;;;15.39;45.77;102313.34;10500359;28;20566;-76
2022/04/27 16:18:09;;;;;;;17.95;12.20;;;;;;;15.33;43.97;102311.31;10501758;28;20060;-75
2022/04/27 16:23:09;;;;;;;17.98;11.32;;;;;;;15.27;43.20;102311.88;10499865;28;20141;-75
2022/04/27 16:28:10;;;;;;;16.00;11.48;;;;;;;15.08;43.80;102315.31;10482841;28;20097;-75
2022/04/27 16:33:10;;;;;;;16.27;11.05;;;;;;;14.95;45.09;102319.03;10500772;28;20060;-75
2022/04/27 16:38:11;;;;;;;19.73;11.80;;;;;;;14.92;44.63;102316.22;10498783;28;20025;-75
2022/04/27 16:43:14;;;;;;;19.75;12.45;;;;;;;14.74;46.42;102317.88;10500049;28;20039;-75
2022/04/27 16:48:14;;;;;;;19.05;11.00;;;;;;;14.62;44.53;102313.72;10498776;28;20086;-75
2022/04/27 16:53:15;;;;;;;15.35;11.35;;;;;;;14.53;45.31;102319.41;10500439;28;20052;-75
2022/04/27 16:58:16;;;;;;;20.58;10.98;;;;;;;14.28;46.91;102314.50;10481526;28;20387;-75
2022/04/27 17:03:16;;;;;;;13.82;9.60;;;;;;;14.25;45.85;102316.97;10498158;28;20063;-75
2022/04/27 17:08:17;;;;;;;18.08;12.48;;;;;;;14.13;47.09;102322.47;10498100;28;20052;-75
2022/04/27 17:13:17;;;;;;;15.63;11.13;;;;;;;13.92;47.35;102320.44;10500441;28;20039;-75
2022/04/27 17:18:18;;;;;;;17.48;11.65;;;;;;;13.77;46.07;102327.47;10498585;28;20040;-75
2022/04/27 17:23:19;;;;;;;13.60;10.25;;;;;;;13.74;47.67;102319.38;10496991;28;20017;-75
2022/04/27 17:28:19;;;;;;;16.42;10.82;;;;;;;13.70;48.54;102328.81;10499014;28;20036;-75
2022/04/27 17:33:20;;;;;;;13.70;10.20;;;;;;;13.47;49.48;102330.09;10496968;28;20621;-75
2022/04/27 17:38:20;;;;;;;15.50;10.30;;;;;;;13.27;49.88;102326.25;10480191;28;20035;-75
2022/04/27 17:43:21;;;;;;;17.48;10.95;;;;;;;13.03;50.05;102331.81;10496691;28;20059;-75
2022/04/27 17:48:22;;;;;;;14.43;10.25;;;;;;;12.85;51.16;102343.03;10497920;28;20039;-75
2022/04/27 17:53:23;;;;;;;16.63;9.75;;;;;;;12.67;52.13;102348.06;10478366;28;20037;-75
2022/04/27 17:58:24;;;;;;;14.20;9.93;;;;;;;12.63;50.74;102353.94;10479506;28;20547;-75
2022/04/27 18:03:24;;;;;;;16.77;10.80;;;;;;;12.51;51.26;102353.16;10497532;28;20095;-75
2022/04/27 18:08:25;;;;;;;12.23;9.77;;;;;;;12.35;51.51;102365.28;10478877;28;20102;-75
2022/04/27 18:13:25;;;;;;;16.05;10.90;;;;;;;12.21;52.19;102366.13;10496701;28;20039;-75
2022/04/27 18:18:29;;;;;;;20.85;12.43;;;;;;;12.08;52.03;102372.28;10494914;28;20032;-75
2022/04/27 18:23:29;;;;;;;16.58;9.55;;;;;;;11.71;54.62;102374.22;10496904;28;20032;-75
2022/04/27 18:28:31;;;;;;;14.77;9.90;;;;;;;11.40;56.12;102381.75;10494623;28;20128;-75
2022/04/27 18:33:31;;;;;;;16.77;11.67;;;;;;;11.00;58.25;102386.03;10495615;28;20032;-75
2022/04/27 18:38:32;;;;;;;16.33;9.82;;;;;;;10.58;59.56;102393.56;10495221;28;20362;-75
2022/04/27 18:54:11;;;;;;;18.08;11.05;;;;;;;9.99;60.59;102418.03;10495520;28;20459;-75
2022/04/27 18:59:12;;;;;;;16.45;10.43;;;;;;;10.04;60.35;102422.69;10496207;28;20119;-75
2022/04/27 19:04:12;;;;;;;12.77;9.68;;;;;;;9.99;60.04;102430.22;10490282;28;20532;-75
2022/04/27 19:09:13;;;;;;;18.45;11.35;;;;;;;9.85;60.21;102429.16;10454443;28;20120;-75
2022/04/27 19:14:13;;;;;;;18.77;10.57;;;;;;;9.71;60.54;102428.13;10382557;28;20067;-75
2022/04/27 19:19:14;;;;;;;15.43;10.25;;;;;;;9.30;61.69;102428.47;10392519;28;20030;-75
2022/04/27 19:24:15;;;;;;;18.02;10.23;;;;;;;8.80;63.84;102438.53;10407923;28;20037;-74
2022/04/27 19:29:16;;;;;;;14.53;10.40;;;;;;;8.36;66.88;102447.19;10415475;28;20033;-75
2022/04/27 19:34:18;;;;;;;16.40;12.27;;;;;;;8.42;66.11;102451.09;10418968;28;20029;-75
2022/04/27 19:39:18;;;;;;;15.50;9.20;;;;;;;8.34;66.44;102459.19;10451866;28;20033;-74
2022/04/27 19:44:19;;;;;;;12.93;8.02;;;;;;;8.57;65.06;102462.81;10430889;28;20037;-74
2022/04/27 19:49:19;;;;;;;13.43;7.82;;;;;;;8.82;64.17;102473.53;10434391;28;20163;-74
2022/04/27 19:54:20;;;;;;;11.05;6.65;;;;;;;9.00;63.79;102473.16;10437930;28;20060;-76
2022/04/27 19:59:21;;;;;;;13.93;7.28;;;;;;;8.94;63.85;102480.50;10406379;28;20116;-75
2022/04/27 20:04:21;;;;;;;13.48;7.13;;;;;;;8.90;63.89;102481.97;10433122;28;20084;-75
2022/04/27 20:09:22;;;;;;;10.60;6.32;;;;;;;8.82;63.65;102481.34;10450330;28;20079;-75
2022/04/27 20:14:22;;;;;;;9.43;6.85;;;;;;;8.67;64.41;102490.53;10452326;28;20509;-75
2022/04/27 20:19:23;;;;;;;11.75;7.13;;;;;;;8.66;64.93;102501.78;10458969;28;20041;-75
2022/04/27 20:24:23;;;;;;;8.95;5.65;;;;;;;8.61;64.74;102510.94;10459730;28;20067;-75
2022/04/27 20:29:24;;;;;;;9.85;5.65;;;;;;;8.53;65.33;102510.31;10437633;28;20361;-74
2022/04/27 20:34:26;;;;;;;17.73;5.50;;;;;;;8.39;66.28;102522.16;10456736;28;20108;-74
2022/04/27 20:39:26;;;;;;;8.63;5.07;;;;;;;8.12;67.10;102521.69;10457806;28;20029;-74
2022/04/27 20:44:27;;;;;;;12.05;5.57;;;;;;;7.97;67.91;102516.09;10456785;28;20056;-75
2022/04/27 20:49:27;;;;;;;15.43;5.47;;;;;;;7.76;68.47;102523.00;10458445;28;20048;-75
2022/04/27 20:54:28;;;;;;;11.02;5.63;;;;;;;7.58;68.77;102532.75;10457348;28;20068;-74
2022/04/27 20:59:29;;;;;;;12.77;6.10;;;;;;;7.36;69.81;102530.91;10392233;28;20036;-75
2022/04/27 21:04:29;;;;;;;11.00;6.72;;;;;;;7.07;71.23;102538.72;10438620;28;20049;-75
2022/04/27 21:09:31;;;;;;;13.15;6.95;;;;;;;6.67;72.30;102544.81;10457351;28;20073;-75
2022/04/27 21:14:31;;;;;;;11.77;6.25;;;;;;;6.37;73.55;102540.34;10438572;28;20104;-74
2022/04/27 21:19:32;;;;;;;11.65;6.28;;;;;;;6.29;74.29;102545.75;10438556;28;20435;-74
2022/04/27 21:24:32;;;;;;;15.15;6.10;;;;;;;6.22;74.76;102547.63;10455663;28;20036;-74
2022/04/27 21:29:33;;;;;;;17.38;7.55;;;;;;;6.06;74.77;102555.72;10453267;28;20035;-74
2022/04/27 21:34:34;;;;;;;12.90;7.07;;;;;;;6.03;74.72;102561.50;10455920;28;20063;-74
2022/04/27 21:39:34;;;;;;;19.77;7.60;;;;;;;5.88;74.92;102571.38;10420367;28;20045;-74
2022/04/27 21:44:35;;;;;;;11.85;6.80;;;;;;;5.82;76.10;102571.69;10456050;28;20071;-74
2022/04/27 21:49:35;;;;;;;13.80;8.25;;;;;;;5.78;76.16;102576.47;10437045;28;20047;-74
2022/04/27 21:54:36;;;;;;;10.35;5.60;;;;;;;5.56;76.00;102577.03;10457472;28;20430;-75
2022/04/27 21:59:37;;;;;;;11.93;7.13;;;;;;;5.41;77.37;102580.00;10434174;28;20072;-74
2022/04/27 22:04:41;;;;;;;15.38;7.90;;;;;;;5.39;77.07;102583.19;10436372;28;20183;-74
2022/04/27 22:09:44;;;;;;;17.95;8.15;;;;;;;5.36;77.52;102593.28;10416701;28;20063;-74
2022/04/27 22:14:45;;;;;;;14.65;8.98;;;;;;;5.35;77.80;102591.44;10453217;28;20037;-75
2022/04/27 22:19:45;;;;;;;17.55;8.18;;;;;;;5.26;78.54;102592.38;10453976;28;20060;-74
2022/04/27 22:24:46;;;;;;;13.43;7.55;;;;;;;5.12;78.11;102603.13;10452003;28;20064;-74
2022/04/27 22:29:46;;;;;;;17.95;8.65;;;;;;;4.95;78.91;102604.06;10453413;28;20036;-74
2022/04/27 22:34:47;;;;;;;14.15;8.93;;;;;;;4.84;79.35;102611.72;10453493;28;20562;-75
2022/04/27 22:39:47;;;;;;;14.35;8.50;;;;;;;4.73;80.39;102606.22;10451068;28;20045;-74
2022/04/27 22:44:47;;;;;;;11.85;8.02;;;;;;;4.67;80.02;102615.22;10453770;28;20037;-74
2022/04/27 22:49:48;;;;;;;13.27;7.57;;;;;;;4.59;80.79;102626.50;10436741;28;20460;-74
2022/04/27 22:54:49;;;;;;;15.23;8.05;;;;;;;4.51;80.80;102625.75;10451261;28;20078;-74
2022/04/27 22:59:49;;;;;;;16.77;10.02;;;;;;;4.44;81.26;102632.75;10450456;28;20048;-74
2022/04/27 23:04:50;;;;;;;16.98;9.18;;;;;;;4.36;81.35;102639.75;10451875;28;20095;-75
2022/04/27 23:15:10;;;;;;;16.58;8.77;;;;;;;4.13;82.25;102634.81;10452736;28;20043;-74
2022/04/27 23:20:11;;;;;;;16.73;8.57;;;;;;;4.16;82.68;102637.72;10452886;28;20028;-74
2022/04/27 23:25:15;;;;;;;14.20;9.13;;;;;;;4.08;82.25;102637.84;10415754;28;20029;-74
2022/04/27 23:30:16;;;;;;;15.30;8.50;;;;;;;4.02;82.37;102633.72;10451308;28;20542;-74
2022/04/27 23:35:17;;;;;;;21.42;9.30;;;;;;;3.97;83.11;102641.00;10433458;28;20120;-74
2022/04/27 23:40:20;;;;;;;13.10;8.85;;;;;;;3.91;83.27;102646.50;10451500;28;20056;-74
2022/04/27 23:45:20;;;;;;;19.25;10.25;;;;;;;3.89;83.17;102639.31;10434101;28;20060;-74
2022/04/27 23:50:26;;;;;;;15.50;9.07;;;;;;;3.86;83.62;102645.09;10456113;28;20063;-74
2022/04/27 23:55:28;;;;;;;13.50;9.15;;;;;;;3.79;83.57;102640.94;10428396;28;20112;-74
